createdAt,value
2018-08-13T00:01:16.172Z,72.80
2018-08-13T00:03:50.550Z,73.60
2018-08-13T00:06:23.284Z,73.60
2018-08-13T00:08:53.558Z,73.70
2018-08-13T00:11:25.626Z,73.60
2018-08-13T00:13:59.298Z,74.60
2018-08-13T00:16:30.947Z,74.90
2018-08-13T00:19:01.844Z,74.40
2018-08-13T00:21:33.710Z,74.60
2018-08-13T00:24:03.608Z,75.10
2018-08-13T00:26:33.241Z,74.80
2018-08-13T00:29:03.627Z,74.50
2018-08-13T00:31:34.412Z,75.00
2018-08-13T00:34:04.691Z,75.10
2018-08-13T00:36:34.375Z,75.60
2018-08-13T00:39:04.559Z,76.20
2018-08-13T00:41:34.426Z,75.80
2018-08-13T00:44:10.210Z,75.80
2018-08-13T00:46:42.843Z,76.10
2018-08-13T00:49:13.830Z,76.30
2018-08-13T00:51:44.806Z,77.00
2018-08-13T00:54:20.148Z,77.10
2018-08-13T00:56:50.587Z,77.30
2018-08-13T00:59:26.017Z,77.30
2018-08-13T01:01:57.612Z,77.20
2018-08-13T01:04:29.171Z,78.20
2018-08-13T01:07:05.239Z,78.60
2018-08-13T01:09:39.319Z,78.80
2018-08-13T01:12:12.045Z,79.20
2018-08-13T01:14:42.637Z,79.20
2018-08-13T01:17:18.396Z,79.50
2018-08-13T01:19:48.649Z,79.50
2018-08-13T01:22:19.231Z,79.70
2018-08-13T01:24:48.940Z,80.30
2018-08-13T01:27:23.718Z,80.50
2018-08-13T01:29:53.545Z,81.10
2018-08-13T01:32:23.417Z,81.50
2018-08-13T01:34:53.988Z,81.40
2018-08-13T01:37:24.456Z,81.60
2018-08-13T01:39:54.585Z,82.10
2018-08-13T01:42:25.056Z,82.00
2018-08-13T01:44:54.919Z,82.00
2018-08-13T01:47:25.559Z,82.20
2018-08-13T01:49:56.132Z,82.60
2018-08-13T01:52:26.009Z,83.20
2018-08-13T01:54:55.825Z,85.60
2018-08-13T01:57:25.705Z,86.40
2018-08-13T01:59:55.453Z,86.00
2018-08-13T02:02:26.063Z,85.90
2018-08-13T02:04:56.881Z,86.90
2018-08-13T02:07:27.231Z,86.90
2018-08-13T02:09:57.917Z,87.10
2018-08-13T02:12:29.274Z,87.60
2018-08-13T02:14:59.586Z,88.30
2018-08-13T02:17:29.923Z,88.30
2018-08-13T02:19:59.706Z,88.40
2018-08-13T02:22:31.160Z,90.10
2018-08-13T02:25:01.198Z,89.80
2018-08-13T02:27:31.888Z,90.20
2018-08-13T02:30:01.862Z,91.30
2018-08-13T02:32:31.743Z,90.50
2018-08-13T02:35:02.636Z,91.70
2018-08-13T02:37:32.658Z,90.90
2018-08-13T02:40:02.442Z,90.50
2018-08-13T02:42:32.382Z,91.40
2018-08-13T02:45:03.399Z,92.40
2018-08-13T02:47:33.554Z,92.90
2018-08-13T02:50:04.239Z,92.40
2018-08-13T02:52:33.936Z,93.70
2018-08-13T02:55:03.706Z,93.60
2018-08-13T02:57:33.675Z,93.60
2018-08-13T03:00:03.887Z,92.40
2018-08-13T03:02:34.416Z,92.40
2018-08-13T03:05:04.770Z,94.30
2018-08-13T03:07:34.854Z,93.60
2018-08-13T03:10:06.376Z,93.20
2018-08-13T03:12:36.208Z,95.50
2018-08-13T03:15:10.901Z,93.20
2018-08-13T03:17:40.721Z,95.20
2018-08-13T03:20:11.007Z,95.90
2018-08-13T03:22:41.845Z,94.00
2018-08-13T03:25:13.341Z,96.20
2018-08-13T03:27:43.009Z,94.00
2018-08-13T03:30:13.839Z,93.30
2018-08-13T03:32:43.744Z,94.90
2018-08-13T03:35:16.028Z,95.00
2018-08-13T03:37:46.441Z,95.80
2018-08-13T03:40:17.693Z,95.20
2018-08-13T03:42:53.203Z,96.50
2018-08-13T03:45:24.395Z,95.80
2018-08-13T03:47:54.327Z,95.90
2018-08-13T03:50:25.262Z,96.30
2018-08-13T03:52:56.462Z,95.90
2018-08-13T03:55:26.531Z,97.70
2018-08-13T03:58:04.212Z,96.10
2018-08-13T04:00:36.331Z,97.90
2018-08-13T04:03:19.259Z,97.50
2018-08-13T04:05:51.499Z,97.70
2018-08-13T04:08:21.927Z,99.00
2018-08-13T04:10:53.072Z,97.90
2018-08-13T04:13:24.120Z,99.50
2018-08-13T04:15:54.338Z,98.10
2018-08-13T04:18:26.419Z,98.10
2018-08-13T04:20:56.671Z,99.50
2018-08-13T04:23:31.394Z,98.00
2018-08-13T04:26:01.251Z,96.60
2018-08-13T04:28:32.237Z,99.00
2018-08-13T04:31:02.620Z,98.40
2018-08-13T04:33:32.256Z,96.80
2018-08-13T04:36:04.696Z,97.40
2018-08-13T04:38:34.438Z,99.50
2018-08-13T04:41:05.576Z,97.80
2018-08-13T04:43:35.255Z,96.50
2018-08-13T04:46:04.918Z,96.60
2018-08-13T04:48:35.228Z,96.30
2018-08-13T04:51:05.078Z,98.30
2018-08-13T04:53:35.464Z,97.50
2018-08-13T04:56:07.806Z,95.90
2018-08-13T04:58:39.476Z,96.10
2018-08-13T05:01:09.398Z,95.90
2018-08-13T05:03:40.487Z,94.90
2018-08-13T05:06:19.513Z,94.30
2018-08-13T05:08:49.291Z,94.30
2018-08-13T05:11:20.136Z,93.90
2018-08-13T05:13:50.163Z,94.10
2018-08-13T05:16:20.228Z,96.50
2018-08-13T05:18:52.578Z,95.00
2018-08-13T05:21:23.681Z,93.70
2018-08-13T05:23:55.703Z,93.40
2018-08-13T05:26:25.806Z,93.20
2018-08-13T05:28:55.800Z,93.70
2018-08-13T05:31:25.400Z,93.40
2018-08-13T05:33:55.590Z,92.70
2018-08-13T05:36:25.899Z,92.30
2018-08-13T05:38:56.035Z,91.90
2018-08-13T05:41:25.776Z,92.20
2018-08-13T05:43:56.916Z,92.00
2018-08-13T05:46:27.055Z,91.50
2018-08-13T05:48:56.803Z,91.20
2018-08-13T05:51:35.050Z,91.10
2018-08-13T05:54:06.073Z,91.00
2018-08-13T05:56:38.577Z,90.60
2018-08-13T05:59:09.459Z,90.70
2018-08-13T06:01:39.912Z,90.60
2018-08-13T06:04:11.205Z,90.50
2018-08-13T06:06:41.760Z,89.90
2018-08-13T06:09:13.581Z,89.20
2018-08-13T06:11:43.584Z,89.20
2018-08-13T06:14:14.037Z,88.50
2018-08-13T06:16:45.000Z,89.90
2018-08-13T06:19:19.857Z,88.30
2018-08-13T06:21:50.822Z,88.50
2018-08-13T06:24:21.624Z,87.70
2018-08-13T06:26:55.281Z,87.60
2018-08-13T06:29:26.283Z,87.10
2018-08-13T06:31:56.349Z,86.50
2018-08-13T06:34:27.646Z,85.20
2018-08-13T06:37:00.037Z,84.60
2018-08-13T06:39:32.280Z,84.30
2018-08-13T06:42:03.210Z,84.40
2018-08-13T06:44:34.531Z,84.50
2018-08-13T06:47:05.383Z,83.40
2018-08-13T06:49:37.916Z,82.80
2018-08-13T06:52:12.231Z,82.50
2018-08-13T06:54:45.051Z,85.00
2018-08-13T06:57:15.150Z,86.40
2018-08-13T06:59:47.014Z,83.60
2018-08-13T07:02:17.502Z,81.20
2018-08-13T07:04:48.274Z,80.80
2018-08-13T07:07:18.755Z,80.10
2018-08-13T07:09:49.267Z,79.40
2018-08-13T07:12:19.214Z,78.60
2018-08-13T07:14:50.968Z,79.60
2018-08-13T07:17:21.520Z,79.30
2018-08-13T07:19:52.001Z,76.60
2018-08-13T07:22:22.756Z,74.20
2018-08-13T07:24:54.939Z,73.00
2018-08-13T07:27:28.935Z,73.10
2018-08-13T07:29:59.515Z,68.70
2018-08-13T07:32:31.121Z,66.80
2018-08-13T07:35:02.646Z,65.70
2018-08-13T07:37:36.272Z,62.70
2018-08-13T07:40:09.329Z,61.30
2018-08-13T07:42:43.106Z,60.30
2018-08-13T07:45:14.063Z,55.80
2018-08-13T07:47:46.822Z,54.30
2018-08-13T07:50:18.272Z,50.60
2018-08-13T07:52:49.552Z,48.10
2018-08-13T07:55:20.298Z,46.00
2018-08-13T07:57:50.878Z,45.00
2018-08-13T08:00:24.757Z,43.80
2018-08-13T08:03:03.487Z,43.20
2018-08-13T08:05:38.776Z,44.00
2018-08-13T08:08:15.296Z,39.80
2018-08-13T08:10:48.884Z,38.00
2018-08-13T08:13:22.611Z,37.40
2018-08-13T08:15:57.786Z,36.70
2018-08-13T08:18:30.309Z,37.70
2018-08-13T08:21:04.905Z,35.20
2018-08-13T08:23:37.867Z,34.70
2018-08-13T08:26:12.995Z,33.60
2018-08-13T08:59:38.685Z,32.50
2018-08-13T09:07:53.899Z,32.30
2018-08-13T09:10:53.055Z,31.30
2018-08-13T09:36:37.534Z,30.10
2018-08-13T09:47:19.463Z,32.30
2018-08-13T09:49:59.020Z,30.30
2018-08-13T09:52:34.357Z,29.50
2018-08-13T09:55:18.886Z,29.40
2018-08-13T09:58:01.022Z,31.40
2018-08-13T10:03:38.013Z,29.80
2018-08-13T10:06:14.382Z,29.20
2018-08-13T10:08:45.538Z,28.50
2018-08-13T10:11:15.411Z,28.80
2018-08-13T10:13:48.717Z,28.20
2018-08-13T10:19:29.712Z,28.80
2018-08-13T10:22:00.475Z,28.30
2018-08-13T10:24:30.802Z,28.20
2018-08-13T10:27:06.355Z,28.30
2018-08-13T10:29:36.712Z,28.60
2018-08-13T10:32:07.309Z,27.60
2018-08-13T10:34:37.483Z,27.40
2018-08-13T10:37:07.939Z,27.20
2018-08-13T10:39:38.008Z,27.70
2018-08-13T10:42:08.818Z,27.40
2018-08-13T10:48:25.606Z,27.30
2018-08-13T10:59:18.415Z,27.30
2018-08-13T11:01:49.564Z,26.80
2018-08-13T11:04:23.135Z,27.50
2018-08-13T11:06:55.598Z,28.30
2018-08-13T11:12:08.065Z,27.80
2018-08-13T11:14:50.159Z,27.90
2018-08-13T11:17:31.029Z,27.70
2018-08-13T11:20:07.173Z,27.50
2018-08-13T11:22:42.357Z,27.50
2018-08-13T11:25:21.960Z,27.40
2018-08-13T11:27:54.229Z,27.30
2018-08-13T11:30:30.359Z,27.50
2018-08-13T11:33:08.289Z,28.40
2018-08-13T11:35:46.295Z,28.50
2018-08-13T11:38:29.917Z,28.70
2018-08-13T11:41:11.941Z,27.70
2018-08-13T11:43:49.802Z,27.40
2018-08-13T11:46:23.467Z,27.10
2018-08-13T11:48:58.669Z,28.40
2018-08-13T11:51:38.097Z,27.90
2018-08-13T11:54:11.763Z,27.80
2018-08-13T11:56:51.121Z,27.30
2018-08-13T11:59:39.377Z,27.40
2018-08-13T12:02:16.264Z,27.10
2018-08-13T12:05:03.494Z,26.80
2018-08-13T12:10:32.404Z,26.50
2018-08-13T12:13:10.286Z,25.90
2018-08-13T12:15:54.074Z,26.40
2018-08-13T12:18:34.836Z,26.50
2018-08-13T12:21:08.102Z,27.00
2018-08-13T12:23:42.023Z,27.30
2018-08-13T12:26:14.258Z,27.40
2018-08-13T12:28:53.185Z,27.30
2018-08-13T12:31:35.259Z,26.60
2018-08-13T12:34:19.620Z,26.80
2018-08-13T12:39:48.598Z,27.80
2018-08-13T12:42:21.084Z,28.20
2018-08-13T12:47:45.435Z,28.50
2018-08-13T12:50:21.516Z,28.40
2018-08-13T12:53:01.234Z,28.10
2018-08-13T12:55:43.837Z,28.50
2018-08-13T12:58:22.105Z,29.10
2018-08-13T13:01:12.605Z,29.60
2018-08-13T13:06:33.666Z,29.70
2018-08-13T13:09:08.924Z,30.20
2018-08-13T13:11:44.538Z,30.70
2018-08-13T13:14:18.917Z,29.70
2018-08-13T13:16:55.240Z,29.40
2018-08-13T13:19:28.521Z,29.60
2018-08-13T13:22:04.700Z,30.50
2018-08-13T13:24:47.645Z,31.90
2018-08-13T13:27:24.924Z,31.90
2018-08-13T13:29:59.033Z,31.40
2018-08-13T13:32:44.389Z,31.40
2018-08-13T13:35:21.294Z,31.60
2018-08-13T13:37:55.950Z,32.20
2018-08-13T13:40:30.481Z,31.00
2018-08-13T13:43:10.107Z,30.00
2018-08-13T13:45:48.905Z,30.50
2018-08-13T13:48:24.957Z,30.90
2018-08-13T13:51:01.463Z,31.20
2018-08-13T13:53:36.388Z,31.80
2018-08-13T13:56:16.022Z,32.20
2018-08-13T14:03:43.040Z,32.50
2018-08-13T14:06:17.963Z,32.10
2018-08-13T14:08:53.940Z,32.30
2018-08-13T14:11:25.790Z,33.00
2018-08-13T14:13:56.729Z,33.20
2018-08-13T14:22:47.589Z,32.50
2018-08-13T14:52:00.946Z,34.00
2018-08-13T14:54:35.075Z,33.00
2018-08-13T14:57:09.983Z,33.40
2018-08-13T14:59:43.697Z,34.10
2018-08-13T15:02:14.639Z,35.10
2018-08-13T15:04:50.313Z,35.00
2018-08-13T15:07:23.205Z,35.00
2018-08-13T15:09:54.806Z,35.00
2018-08-13T15:12:28.179Z,34.80
2018-08-13T15:14:59.838Z,34.50
2018-08-13T15:17:29.708Z,34.80
2018-08-13T15:20:00.699Z,34.70
2018-08-13T15:22:35.671Z,34.40
2018-08-13T15:25:09.063Z,34.10
2018-08-13T15:27:40.598Z,34.50
2018-08-13T15:30:19.484Z,34.50
2018-08-13T15:32:51.678Z,35.30
2018-08-13T15:35:22.424Z,34.70
2018-08-13T15:37:53.411Z,35.20
2018-08-13T15:40:24.488Z,35.30
2018-08-13T15:43:00.469Z,35.30
2018-08-13T15:45:33.621Z,35.60
2018-08-13T15:48:06.004Z,36.30
2018-08-13T15:50:37.546Z,36.80
2018-08-13T15:53:09.605Z,37.10
2018-08-13T15:55:41.573Z,37.40
2018-08-13T15:58:20.186Z,37.40
2018-08-13T16:00:51.893Z,37.40
2018-08-13T16:03:23.253Z,37.00
2018-08-13T16:05:55.314Z,37.00
2018-08-13T16:08:27.601Z,36.90
2018-08-13T16:10:59.622Z,37.30
2018-08-13T16:13:30.951Z,36.80
2018-08-13T16:16:04.902Z,37.00
2018-08-13T16:18:35.005Z,36.90
2018-08-13T16:21:11.681Z,37.60
2018-08-13T16:23:43.426Z,37.80
2018-08-13T16:26:15.355Z,38.10
2018-08-13T16:28:48.222Z,38.10
2018-08-13T16:31:21.724Z,38.30
2018-08-13T16:33:53.223Z,38.50
2018-08-13T16:36:31.051Z,38.60
2018-08-13T16:39:04.693Z,38.50
2018-08-13T16:41:37.188Z,38.00
2018-08-13T16:44:09.934Z,38.40
2018-08-13T16:46:51.116Z,38.60
2018-08-13T16:49:21.427Z,38.10
2018-08-13T16:51:51.915Z,38.00
2018-08-13T16:54:23.869Z,37.90
2018-08-13T16:56:54.727Z,37.70
2018-08-13T16:59:26.065Z,36.80
2018-08-13T17:02:00.276Z,37.00
2018-08-13T17:04:33.025Z,37.70
2018-08-13T17:07:04.225Z,39.90
2018-08-13T17:09:34.954Z,41.50
2018-08-13T17:12:06.945Z,42.30
2018-08-13T17:14:36.843Z,43.20
2018-08-13T17:17:06.652Z,43.60
2018-08-13T17:19:36.364Z,43.90
2018-08-13T17:22:09.115Z,44.60
2018-08-13T17:24:40.412Z,45.00
2018-08-13T17:27:12.420Z,45.50
2018-08-13T17:29:43.448Z,45.80
2018-08-13T17:32:14.761Z,46.20
2018-08-13T17:34:46.531Z,46.60
2018-08-13T17:37:18.671Z,46.90
2018-08-13T17:39:50.696Z,47.10
2018-08-13T17:42:24.436Z,47.10
2018-08-13T17:44:55.207Z,47.20
2018-08-13T17:47:30.439Z,47.50
2018-08-13T17:50:01.769Z,47.60
2018-08-13T17:52:33.725Z,48.00
2018-08-13T17:55:08.162Z,48.20
2018-08-13T17:57:46.036Z,48.70
2018-08-13T18:03:08.353Z,49.20
2018-08-13T18:05:40.179Z,49.40
2018-08-13T18:08:14.324Z,49.60
2018-08-13T18:10:49.419Z,50.00
2018-08-13T18:13:19.753Z,50.40
2018-08-13T18:15:50.106Z,50.90
2018-08-13T18:18:19.921Z,50.90
2018-08-13T18:20:50.289Z,51.70
2018-08-13T18:23:21.116Z,51.50
2018-08-13T18:25:52.252Z,51.80
2018-08-13T18:28:50.606Z,52.20
2018-08-13T18:34:32.090Z,52.80
2018-08-13T18:37:06.895Z,53.20
2018-08-13T18:39:39.600Z,53.20
2018-08-13T18:42:09.707Z,53.30
2018-08-13T18:44:50.308Z,53.30
2018-08-13T18:47:23.091Z,53.80
2018-08-13T18:49:53.664Z,53.80
2018-08-13T18:52:31.625Z,54.20
2018-08-13T18:55:01.983Z,54.30
2018-08-13T18:57:32.724Z,54.70
2018-08-13T19:00:03.163Z,54.70
2018-08-13T19:02:34.811Z,55.10
2018-08-13T19:05:05.167Z,55.00
2018-08-13T19:07:36.295Z,55.30
2018-08-13T19:10:08.824Z,55.70
2018-08-13T19:12:40.298Z,55.80
2018-08-13T19:15:17.657Z,55.80
2018-08-13T19:17:49.064Z,55.90
2018-08-13T19:20:21.159Z,56.10
2018-08-13T19:22:53.567Z,56.30
2018-08-13T19:25:30.917Z,56.70
2018-08-13T19:28:05.456Z,56.80
2018-08-13T19:30:41.627Z,57.00
2018-08-13T19:33:18.763Z,57.00
2018-08-13T19:35:51.474Z,57.20
2018-08-13T19:38:33.898Z,57.20
2018-08-13T19:41:15.693Z,57.20
2018-08-13T19:43:50.551Z,57.40
2018-08-13T19:46:22.510Z,57.50
2018-08-13T19:48:56.010Z,57.70
2018-08-13T19:51:36.961Z,57.70
2018-08-13T19:54:14.300Z,57.90
2018-08-13T19:56:57.809Z,58.10
2018-08-13T19:59:45.152Z,58.30
2018-08-13T20:02:31.815Z,58.50
2018-08-13T20:05:21.221Z,58.70
2018-08-13T20:08:16.105Z,58.90
2018-08-13T20:10:51.385Z,59.10
2018-08-13T20:13:32.502Z,59.40
2018-08-13T20:16:05.689Z,59.50
2018-08-13T20:18:54.241Z,59.60
2018-08-13T20:24:31.397Z,59.90
2018-08-13T20:45:16.629Z,60.80
2018-08-13T20:48:04.769Z,61.90
2018-08-13T20:56:53.817Z,59.50
2018-08-13T20:59:49.827Z,59.40
2018-08-13T21:02:50.788Z,60.00
2018-08-13T21:05:35.777Z,60.70
2018-08-13T21:08:11.345Z,61.40
2018-08-13T21:10:59.928Z,61.70
2018-08-13T21:13:53.716Z,62.60
2018-08-13T21:30:52.428Z,63.60
2018-08-13T21:44:16.553Z,67.80
2018-08-13T21:47:04.129Z,69.40
2018-08-13T21:50:04.283Z,68.60
2018-08-13T21:52:45.458Z,69.60
2018-08-13T21:55:26.506Z,69.70
2018-08-13T21:58:09.102Z,70.40
2018-08-13T22:04:17.401Z,71.50
2018-08-13T22:09:54.107Z,73.00
2018-08-13T22:15:36.729Z,74.30
2018-08-13T22:18:11.376Z,75.00
2018-08-13T22:20:51.318Z,75.70
2018-08-13T22:23:36.016Z,76.00
2018-08-13T22:26:13.994Z,76.50
2018-08-13T22:28:49.559Z,77.20
2018-08-13T22:31:33.662Z,77.80
2018-08-13T22:34:18.137Z,78.20
2018-08-13T22:37:13.704Z,78.70
2018-08-13T22:39:53.143Z,79.30
2018-08-13T22:49:08.004Z,80.50
2018-08-13T22:51:51.728Z,81.20
2018-08-13T22:54:54.941Z,81.60
2018-08-13T23:00:19.241Z,82.80
2018-08-13T23:02:58.367Z,83.40
2018-08-13T23:05:32.694Z,83.80
2018-08-13T23:08:09.809Z,84.30
2018-08-13T23:10:42.922Z,84.70
2018-08-13T23:16:30.930Z,85.30
2018-08-13T23:21:54.665Z,86.00
2018-08-13T23:24:26.770Z,86.20
2018-08-13T23:27:21.813Z,86.10
2018-08-13T23:30:14.360Z,86.30
2018-08-13T23:33:04.014Z,87.50
2018-08-13T23:35:37.126Z,87.00
2018-08-13T23:38:09.673Z,86.90
2018-08-13T23:40:42.635Z,87.10
2018-08-13T23:43:24.585Z,87.20
2018-08-13T23:45:58.853Z,87.60
2018-08-13T23:48:55.191Z,87.70
2018-08-13T23:51:39.186Z,88.10
2018-08-13T23:54:30.312Z,88.30
